Time;durP1;ratioP1;P1;durP2;ratioP2;P2;SDS_P1;SDS_P2;PMS_P1;PMS_P2;Temp;Humidity;BMP_temperature;BMP_pressure;BME280_temperature;BME280_humidity;BME280_pressure;Samples;Min_cycle;Max_cycle;Signal;HPM_P1;HPM_P2
2022/12/09 00:00:34;;;;;;;8.95;8.35;;;;;;;;;;5014177;28;20038;-62
2022/12/09 00:03:00;;;;;;;10.27;9.48;;;;;;;;;;5013119;28;20030;-62
2022/12/09 00:05:25;;;;;;;10.68;9.88;;;;;;;;;;5014641;28;20061;-62
2022/12/09 00:07:51;;;;;;;10.93;10.02;;;;;;;;;;5013844;28;20057;-62
2022/12/09 00:10:16;;;;;;;12.35;11.32;;;;;;;;;;5011055;28;20161;-61
2022/12/09 00:12:41;;;;;;;11.10;10.15;;;;;;;;;;5013993;28;20115;-61
2022/12/09 00:15:07;;;;;;;9.65;8.95;;;;;;;;;;5012696;28;20659;-61
2022/12/09 00:17:33;;;;;;;10.23;9.50;;;;;;;;;;5021827;28;20034;-62
2022/12/09 00:19:58;;;;;;;9.57;8.80;;;;;;;;;;5010548;28;20458;-61
2022/12/09 00:22:26;;;;;;;9.55;8.80;;;;;;;;;;5013751;28;20120;-62
2022/12/09 00:24:51;;;;;;;9.38;8.70;;;;;;;;;;5014694;28;20065;-61
2022/12/09 00:27:16;;;;;;;10.20;9.48;;;;;;;;;;5012360;28;20061;-61
2022/12/09 00:29:42;;;;;;;10.40;9.60;;;;;;;;;;5008093;28;20088;-61
2022/12/09 00:32:08;;;;;;;9.73;9.02;;;;;;;;;;5014442;28;20037;-61
2022/12/09 00:34:33;;;;;;;10.23;9.43;;;;;;;;;;5012794;28;20052;-60
2022/12/09 00:36:58;;;;;;;9.20;8.55;;;;;;;;;;5014890;28;20047;-60
2022/12/09 00:39:25;;;;;;;11.35;10.48;;;;;;;;;;5014194;28;20037;-60
2022/12/09 00:41:51;;;;;;;9.57;8.88;;;;;;;;;;5014496;28;20037;-61
2022/12/09 00:44:16;;;;;;;10.35;9.65;;;;;;;;;;5017107;28;20038;-61
2022/12/09 00:46:42;;;;;;;9.73;9.02;;;;;;;;;;5014811;28;20123;-62
2022/12/09 00:49:09;;;;;;;10.65;9.93;;;;;;;;;;5015929;28;20038;-62
2022/12/09 00:51:34;;;;;;;10.18;8.52;;;;;;;;;;5017415;28;20132;-60
2022/12/09 00:53:59;;;;;;;9.00;8.40;;;;;;;;;;5015374;28;20112;-61
2022/12/09 00:56:27;;;;;;;8.63;8.02;;;;;;;;;;5014794;28;20034;-61
2022/12/09 00:58:53;;;;;;;10.98;9.95;;;;;;;;;;5015146;28;20045;-61
2022/12/09 01:01:19;;;;;;;11.57;10.68;;;;;;;;;;5016267;28;20042;-61
2022/12/09 01:03:44;;;;;;;10.82;10.02;;;;;;;;;;5017392;28;20243;-62
2022/12/09 01:06:13;;;;;;;10.68;9.68;;;;;;;;;;5018091;28;20048;-61
2022/12/09 01:08:38;;;;;;;10.43;9.63;;;;;;;;;;5017414;28;20430;-61
2022/12/09 01:11:09;;;;;;;9.65;8.88;;;;;;;;;;5017305;28;20065;-61
2022/12/09 01:13:34;;;;;;;9.23;8.52;;;;;;;;;;5017281;28;20125;-61
2022/12/09 01:15:59;;;;;;;12.65;9.30;;;;;;;;;;5017224;28;20115;-61
2022/12/09 01:18:25;;;;;;;9.35;8.65;;;;;;;;;;5018400;28;20105;-61
2022/12/09 01:20:57;;;;;;;10.60;9.77;;;;;;;;;;5016132;28;20107;-62
2022/12/09 01:23:23;;;;;;;9.38;8.77;;;;;;;;;;5016594;28;20033;-61
2022/12/09 01:25:49;;;;;;;11.38;10.35;;;;;;;;;;5016409;28;20033;-61
2022/12/09 01:28:14;;;;;;;9.25;8.63;;;;;;;;;;5018264;28;20049;-61
2022/12/09 01:30:39;;;;;;;10.20;9.50;;;;;;;;;;5016887;28;20091;-60
2022/12/09 01:33:05;;;;;;;9.57;8.88;;;;;;;;;;5015226;28;20042;-60
2022/12/09 01:35:30;;;;;;;10.63;9.75;;;;;;;;;;5018202;28;20067;-62
2022/12/09 01:37:55;;;;;;;10.00;9.30;;;;;;;;;;5013435;28;20034;-61
2022/12/09 01:40:21;;;;;;;10.00;9.15;;;;;;;;;;5015166;28;20057;-60
2022/12/09 01:42:49;;;;;;;9.57;8.88;;;;;;;;;;5015735;28;20030;-61
2022/12/09 01:45:29;;;;;;;10.90;9.98;;;;;;;;;;5018548;28;20033;-61
2022/12/09 01:48:15;;;;;;;9.95;9.30;;;;;;;;;;5015177;28;20205;-61
2022/12/09 01:51:03;;;;;;;10.82;9.93;;;;;;;;;;5015887;28;20468;-61
2022/12/09 01:53:33;;;;;;;12.23;11.02;;;;;;;;;;5013512;28;20136;-61
2022/12/09 01:56:04;;;;;;;10.13;9.43;;;;;;;;;;5016711;28;20041;-61
2022/12/09 01:58:30;;;;;;;10.52;9.77;;;;;;;;;;5014703;28;20506;-60
2022/12/09 02:00:55;;;;;;;11.43;10.45;;;;;;;;;;5016097;28;20069;-61
2022/12/09 02:03:20;;;;;;;10.90;10.07;;;;;;;;;;5015015;28;20044;-61
2022/12/09 02:05:46;;;;;;;10.20;9.50;;;;;;;;;;5017259;28;20029;-61
2022/12/09 02:08:14;;;;;;;10.13;9.32;;;;;;;;;;5015886;28;20069;-60
2022/12/09 02:11:06;;;;;;;11.32;10.50;;;;;;;;;;5014553;28;20045;-61
2022/12/09 02:13:37;;;;;;;10.15;9.45;;;;;;;;;;5014790;28;20044;-61
2022/12/09 02:16:08;;;;;;;10.88;10.10;;;;;;;;;;5014071;28;20434;-61
2022/12/09 02:18:52;;;;;;;10.13;9.43;;;;;;;;;;5011588;28;20164;-61
2022/12/09 02:21:25;;;;;;;9.40;8.80;;;;;;;;;;5015067;28;20356;-62
2022/12/09 02:24:07;;;;;;;9.95;9.20;;;;;;;;;;5014266;28;20022;-61
2022/12/09 02:26:43;;;;;;;10.98;10.27;;;;;;;;;;5016478;28;20029;-61
2022/12/09 02:29:21;;;;;;;11.40;10.57;;;;;;;;;;5016903;28;20029;-62
2022/12/09 02:32:14;;;;;;;11.35;10.55;;;;;;;;;;5013122;28;20053;-61
2022/12/09 02:34:45;;;;;;;10.15;9.45;;;;;;;;;;5014854;28;20047;-62
2022/12/09 02:37:23;;;;;;;11.50;10.70;;;;;;;;;;5013679;28;20040;-62
2022/12/09 02:39:52;;;;;;;11.43;10.43;;;;;;;;;;5013284;28;20328;-62
2022/12/09 02:42:21;;;;;;;10.55;9.77;;;;;;;;;;5013862;28;20289;-62
2022/12/09 02:44:48;;;;;;;10.05;9.35;;;;;;;;;;5012938;28;20445;-62
2022/12/09 02:47:17;;;;;;;12.05;10.85;;;;;;;;;;5015810;28;20034;-61
2022/12/09 02:49:47;;;;;;;10.32;9.52;;;;;;;;;;5014635;28;20112;-61
2022/12/09 02:52:13;;;;;;;9.82;9.13;;;;;;;;;;5016845;28;20455;-62
2022/12/09 02:54:39;;;;;;;10.02;9.32;;;;;;;;;;5013599;28;20052;-61
2022/12/09 02:57:22;;;;;;;10.07;9.27;;;;;;;;;;5014896;28;20575;-61
2022/12/09 02:59:48;;;;;;;9.57;8.85;;;;;;;;;;5013043;28;20119;-61
2022/12/09 03:02:20;;;;;;;9.35;8.73;;;;;;;;;;5012775;28;20223;-61
2022/12/09 03:04:53;;;;;;;9.93;9.23;;;;;;;;;;5014886;28;20029;-62
2022/12/09 03:07:41;;;;;;;10.02;9.32;;;;;;;;;;5014901;28;20063;-62
2022/12/09 03:10:15;;;;;;;9.70;9.00;;;;;;;;;;5015206;28;20072;-61
2022/12/09 03:12:44;;;;;;;9.32;8.73;;;;;;;;;;5014349;28;20069;-61
2022/12/09 03:15:11;;;;;;;10.75;9.77;;;;;;;;;;5017343;28;20029;-62
2022/12/09 03:17:40;;;;;;;9.75;9.10;;;;;;;;;;5014167;28;20034;-60
2022/12/09 03:20:11;;;;;;;10.75;9.95;;;;;;;;;;5013188;28;20030;-60
2022/12/09 03:22:40;;;;;;;10.68;9.68;;;;;;;;;;5015078;28;20482;-61
2022/12/09 03:25:11;;;;;;;9.85;9.15;;;;;;;;;;5015100;28;20061;-61
2022/12/09 03:27:41;;;;;;;9.77;9.07;;;;;;;;;;5014572;28;20026;-61
2022/12/09 03:30:09;;;;;;;10.10;9.40;;;;;;;;;;5011403;28;20036;-60
2022/12/09 03:32:37;;;;;;;9.43;8.82;;;;;;;;;;5015848;28;20033;-61
2022/12/09 03:35:08;;;;;;;10.30;9.60;;;;;;;;;;5013962;28;20041;-60
2022/12/09 03:37:36;;;;;;;10.57;9.77;;;;;;;;;;5011924;28;20033;-61
2022/12/09 03:40:04;;;;;;;9.85;9.15;;;;;;;;;;5011917;28;20037;-60
2022/12/09 03:42:37;;;;;;;12.45;9.63;;;;;;;;;;5014003;28;20049;-60
2022/12/09 03:45:08;;;;;;;10.18;9.27;;;;;;;;;;5013377;28;20057;-60
2022/12/09 03:47:33;;;;;;;9.68;8.98;;;;;;;;;;5011287;28;20040;-61
2022/12/09 03:49:59;;;;;;;10.07;9.25;;;;;;;;;;5011371;28;20022;-60
2022/12/09 03:52:35;;;;;;;10.15;9.35;;;;;;;;;;5015913;28;20476;-60
2022/12/09 03:55:06;;;;;;;9.13;8.52;;;;;;;;;;5016281;28;20041;-60
2022/12/09 03:57:34;;;;;;;;;;;;;;;;;;5014875;28;20197;-60
2022/12/09 04:00:00;;;;;;;9.20;8.50;;;;;;;;;;5013790;28;20088;-60
2022/12/09 04:02:26;;;;;;;9.20;8.40;;;;;;;;;;5015225;28;20479;-60
2022/12/09 04:04:51;;;;;;;9.95;9.25;;;;;;;;;;5015158;28;20574;-60
2022/12/09 04:07:17;;;;;;;9.05;8.45;;;;;;;;;;5013002;28;20113;-60
2022/12/09 04:09:42;;;;;;;9.68;8.98;;;;;;;;;;5010868;28;20634;-60
2022/12/09 04:12:08;;;;;;;9.38;8.57;;;;;;;;;;5014002;28;20076;-62
2022/12/09 04:14:34;;;;;;;8.50;7.93;;;;;;;;;;5012544;28;20034;-61
2022/12/09 04:16:59;;;;;;;8.75;8.15;;;;;;;;;;5017385;28;20033;-61
2022/12/09 04:19:25;;;;;;;10.07;9.13;;;;;;;;;;5015615;28;20045;-60
2022/12/09 04:21:50;;;;;;;9.75;9.05;;;;;;;;;;5021477;28;20049;-61
2022/12/09 04:24:16;;;;;;;10.48;9.68;;;;;;;;;;5022591;28;20041;-60
2022/12/09 04:26:41;;;;;;;9.32;8.73;;;;;;;;;;5016434;28;20033;-61
2022/12/09 04:29:08;;;;;;;10.70;9.90;;;;;;;;;;5019241;28;20041;-59
2022/12/09 04:31:34;;;;;;;10.07;9.25;;;;;;;;;;5014102;28;20126;-61
2022/12/09 04:34:00;;;;;;;9.00;8.30;;;;;;;;;;5017560;28;20116;-61
2022/12/09 04:36:25;;;;;;;9.73;8.98;;;;;;;;;;5023383;28;20037;-61
2022/12/09 04:38:50;;;;;;;11.35;9.80;;;;;;;;;;5021479;28;20056;-62
2022/12/09 04:41:16;;;;;;;11.43;10.52;;;;;;;;;;5017059;28;20047;-61
2022/12/09 04:43:42;;;;;;;11.63;10.70;;;;;;;;;;5018976;28;20029;-61
2022/12/09 04:46:11;;;;;;;9.43;8.73;;;;;;;;;;5016888;28;20103;-61
2022/12/09 04:48:36;;;;;;;9.88;9.18;;;;;;;;;;5014359;28;20030;-61
2022/12/09 04:51:02;;;;;;;10.77;10.07;;;;;;;;;;5011722;28;20111;-59
2022/12/09 04:53:27;;;;;;;9.15;8.45;;;;;;;;;;5015089;28;20076;-60
2022/12/09 04:56:20;;;;;;;11.05;10.25;;;;;;;;;;5015807;28;20030;-60
2022/12/09 04:58:47;;;;;;;10.77;9.77;;;;;;;;;;5018226;28;20180;-60
2022/12/09 05:01:15;;;;;;;9.90;9.20;;;;;;;;;;5015300;28;20876;-62
2022/12/09 05:03:41;;;;;;;11.80;10.90;;;;;;;;;;5016610;28;20107;-61
2022/12/09 05:06:12;;;;;;;10.18;9.48;;;;;;;;;;5015433;28;20029;-61
2022/12/09 05:08:38;;;;;;;;;;;;;;;;;;5015889;28;20600;-61
2022/12/09 05:11:04;;;;;;;9.82;9.13;;;;;;;;;;5014393;28;19996;-60
2022/12/09 05:13:30;;;;;;;10.10;9.20;;;;;;;;;;5014514;28;20033;-60
2022/12/09 05:16:05;;;;;;;10.20;9.23;;;;;;;;;;5014508;28;20083;-59
2022/12/09 05:18:30;;;;;;;9.75;9.05;;;;;;;;;;5013335;28;20064;-60
2022/12/09 05:20:55;;;;;;;9.48;8.82;;;;;;;;;;5012672;28;20033;-62
2022/12/09 05:23:21;;;;;;;10.95;9.95;;;;;;;;;;5012301;28;20105;-61
2022/12/09 05:25:47;;;;;;;11.80;10.85;;;;;;;;;;5013360;28;20092;-60
2022/12/09 05:28:12;;;;;;;10.15;9.45;;;;;;;;;;5014163;28;20037;-61
2022/12/09 05:30:38;;;;;;;12.45;11.43;;;;;;;;;;5016407;28;20037;-61
2022/12/09 05:33:04;;;;;;;10.90;10.10;;;;;;;;;;5012734;28;20041;-60
2022/12/09 05:35:29;;;;;;;11.32;10.40;;;;;;;;;;5014313;28;20332;-60
2022/12/09 05:37:54;;;;;;;9.52;8.77;;;;;;;;;;5013730;28;20091;-60
2022/12/09 05:40:20;;;;;;;8.93;8.32;;;;;;;;;;5017363;28;20121;-59
2022/12/09 05:42:45;;;;;;;9.77;9.10;;;;;;;;;;5014834;28;20077;-60
2022/12/09 05:45:10;;;;;;;10.23;9.43;;;;;;;;;;5015973;28;20066;-60
2022/12/09 05:47:36;;;;;;;11.10;10.20;;;;;;;;;;5017050;28;20038;-60
2022/12/09 05:50:03;;;;;;;10.65;9.85;;;;;;;;;;5015704;28;20113;-61
2022/12/09 05:52:28;;;;;;;9.98;9.27;;;;;;;;;;5014579;28;20420;-60
2022/12/09 05:54:53;;;;;;;9.63;8.93;;;;;;;;;;5011974;28;20040;-61
2022/12/09 05:57:19;;;;;;;10.32;9.63;;;;;;;;;;5015775;28;20312;-60
2022/12/09 05:59:44;;;;;;;10.25;9.48;;;;;;;;;;5017044;28;20487;-60
2022/12/09 06:02:09;;;;;;;10.00;9.20;;;;;;;;;;5019037;28;20363;-61
2022/12/09 06:04:35;;;;;;;11.93;9.73;;;;;;;;;;5014249;28;20454;-61
2022/12/09 06:07:00;;;;;;;9.82;9.10;;;;;;;;;;5016430;28;20030;-61
2022/12/09 06:09:25;;;;;;;9.90;9.20;;;;;;;;;;5014259;28;20460;-61
2022/12/09 06:11:51;;;;;;;10.32;9.52;;;;;;;;;;5014360;28;20659;-61
2022/12/09 06:14:16;;;;;;;10.13;9.23;;;;;;;;;;5012567;28;20611;-62
2022/12/09 06:16:42;;;;;;;9.38;8.68;;;;;;;;;;5013437;28;20042;-61
2022/12/09 06:19:10;;;;;;;10.48;9.68;;;;;;;;;;5013090;28;20999;-61
2022/12/09 06:21:39;;;;;;;10.40;9.57;;;;;;;;;;5013363;28;20048;-61
2022/12/09 06:24:05;;;;;;;11.50;8.55;;;;;;;;;;5017067;28;20056;-61
2022/12/09 06:26:30;;;;;;;10.02;9.27;;;;;;;;;;5017973;28;20485;-62
2022/12/09 06:28:56;;;;;;;8.98;8.38;;;;;;;;;;5016721;28;20181;-61
2022/12/09 06:31:22;;;;;;;12.60;10.52;;;;;;;;;;5015019;28;20239;-62
2022/12/09 06:33:48;;;;;;;10.23;9.48;;;;;;;;;;5017292;28;20165;-62
2022/12/09 06:36:14;;;;;;;10.40;9.57;;;;;;;;;;5014416;28;20125;-62
2022/12/09 06:38:39;;;;;;;9.20;8.60;;;;;;;;;;5017637;28;20086;-62
2022/12/09 06:41:07;;;;;;;11.27;10.48;;;;;;;;;;5015609;28;20043;-62
2022/12/09 06:43:32;;;;;;;9.65;8.93;;;;;;;;;;5016079;28;20037;-61
2022/12/09 06:45:57;;;;;;;9.68;8.95;;;;;;;;;;5016467;28;20048;-61
2022/12/09 06:48:23;;;;;;;9.93;9.23;;;;;;;;;;5015649;28;20025;-63
2022/12/09 06:50:49;;;;;;;11.38;10.50;;;;;;;;;;5013523;28;20037;-62
2022/12/09 06:53:15;;;;;;;10.23;9.40;;;;;;;;;;5013479;28;20100;-62
2022/12/09 06:55:40;;;;;;;10.23;9.52;;;;;;;;;;5018830;28;20391;-62
2022/12/09 06:58:06;;;;;;;12.18;10.93;;;;;;;;;;5012278;28;20046;-62
2022/12/09 07:00:32;;;;;;;9.75;9.07;;;;;;;;;;5014111;28;20087;-58
2022/12/09 07:02:57;;;;;;;9.70;9.00;;;;;;;;;;5015794;28;20037;-58
2022/12/09 07:05:23;;;;;;;9.32;8.68;;;;;;;;;;5013727;28;20030;-58
2022/12/09 07:07:50;;;;;;;9.48;8.77;;;;;;;;;;5014799;28;20037;-58
2022/12/09 07:10:16;;;;;;;10.35;9.45;;;;;;;;;;5015529;28;20041;-58
2022/12/09 07:12:42;;;;;;;10.90;10.00;;;;;;;;;;5012687;28;20103;-58
2022/12/09 07:15:08;;;;;;;9.30;8.65;;;;;;;;;;5013224;28;20490;-58
2022/12/09 07:17:33;;;;;;;10.05;9.35;;;;;;;;;;5012036;28;20033;-58
2022/12/09 07:19:59;;;;;;;9.00;8.38;;;;;;;;;;5014112;28;20047;-58
2022/12/09 07:22:24;;;;;;;10.00;9.23;;;;;;;;;;5015306;28;20049;-58
2022/12/09 07:24:49;;;;;;;10.48;9.68;;;;;;;;;;5013281;28;20038;-58
2022/12/09 07:27:15;;;;;;;10.75;9.90;;;;;;;;;;5011288;28;20124;-58
2022/12/09 07:29:40;;;;;;;9.38;8.68;;;;;;;;;;5007159;28;20119;-58
2022/12/09 07:32:08;;;;;;;10.55;9.75;;;;;;;;;;5013421;28;20732;-58
2022/12/09 07:34:34;;;;;;;9.40;8.68;;;;;;;;;;5013007;28;20052;-58
2022/12/09 07:36:59;;;;;;;10.65;9.75;;;;;;;;;;5014487;28;20033;-58
2022/12/09 07:39:25;;;;;;;11.63;10.63;;;;;;;;;;5012112;28;20037;-58
2022/12/09 07:41:52;;;;;;;9.52;8.82;;;;;;;;;;5011519;28;20033;-58
2022/12/09 07:44:18;;;;;;;10.15;9.27;;;;;;;;;;5011200;28;20733;-58
2022/12/09 07:46:43;;;;;;;10.98;9.25;;;;;;;;;;5014985;28;20037;-58
2022/12/09 07:49:10;;;;;;;9.55;8.85;;;;;;;;;;5010457;28;20519;-59
2022/12/09 07:51:35;;;;;;;8.27;7.70;;;;;;;;;;5017283;28;20042;-59
2022/12/09 07:54:01;;;;;;;10.07;9.38;;;;;;;;;;5016354;28;20470;-59
2022/12/09 07:56:27;;;;;;;9.90;9.20;;;;;;;;;;5015932;28;20061;-59
2022/12/09 07:58:53;;;;;;;9.25;8.65;;;;;;;;;;5007848;28;20144;-58
2022/12/09 08:01:22;;;;;;;10.27;9.35;;;;;;;;;;5013747;28;20704;-58
2022/12/09 08:03:48;;;;;;;10.00;9.30;;;;;;;;;;5016925;28;20565;-59
2022/12/09 08:06:20;;;;;;;9.25;8.60;;;;;;;;;;5013479;28;20236;-58
2022/12/09 08:08:45;;;;;;;;;;;;;;;;;;5012736;28;20075;-58
2022/12/09 08:11:19;;;;;;;9.63;8.98;;;;;;;;;;5014269;28;20271;-59
2022/12/09 08:13:45;;;;;;;10.85;10.05;;;;;;;;;;5013362;28;20566;-59
2022/12/09 08:16:12;;;;;;;13.27;12.02;;;;;;;;;;5015090;28;20052;-58
2022/12/09 08:18:38;;;;;;;9.10;8.48;;;;;;;;;;5014208;28;20030;-58
2022/12/09 08:21:06;;;;;;;10.48;9.73;;;;;;;;;;5016692;28;20106;-59
2022/12/09 08:23:31;;;;;;;10.88;10.07;;;;;;;;;;5017401;28;20463;-58
2022/12/09 08:25:57;;;;;;;10.10;9.30;;;;;;;;;;5015079;28;20048;-58
2022/12/09 08:28:22;;;;;;;10.65;9.85;;;;;;;;;;5014619;28;20403;-59
2022/12/09 08:30:49;;;;;;;9.55;8.85;;;;;;;;;;5013001;28;20037;-58
2022/12/09 08:33:14;;;;;;;9.27;8.63;;;;;;;;;;5014305;28;20048;-59
2022/12/09 08:35:40;;;;;;;8.63;8.02;;;;;;;;;;5016664;28;20075;-59
2022/12/09 08:38:06;;;;;;;9.23;8.63;;;;;;;;;;5012286;28;20041;-59
2022/12/09 08:40:31;;;;;;;10.15;9.40;;;;;;;;;;5018251;28;20029;-59
2022/12/09 08:42:56;;;;;;;8.95;8.35;;;;;;;;;;5014326;28;20042;-59
2022/12/09 08:45:22;;;;;;;12.02;9.73;;;;;;;;;;5015506;28;20045;-59
2022/12/09 08:47:47;;;;;;;8.60;8.00;;;;;;;;;;5013062;28;20044;-59
2022/12/09 08:50:13;;;;;;;9.95;9.15;;;;;;;;;;5013623;28;20391;-59
2022/12/09 08:52:38;;;;;;;9.80;9.10;;;;;;;;;;5015895;28;20042;-58
2022/12/09 08:55:04;;;;;;;8.98;8.38;;;;;;;;;;5016651;28;20043;-58
2022/12/09 08:57:29;;;;;;;9.82;9.02;;;;;;;;;;5014319;28;20029;-59
2022/12/09 08:59:55;;;;;;;9.38;8.73;;;;;;;;;;5015483;28;20033;-58
2022/12/09 09:02:20;;;;;;;8.40;7.80;;;;;;;;;;5017016;28;20052;-59
2022/12/09 09:04:46;;;;;;;9.52;8.73;;;;;;;;;;5016217;28;20080;-59
2022/12/09 09:07:11;;;;;;;10.40;9.60;;;;;;;;;;5016883;28;20456;-58
2022/12/09 09:09:37;;;;;;;11.02;8.90;;;;;;;;;;5017753;28;20036;-59
2022/12/09 09:12:02;;;;;;;10.40;9.40;;;;;;;;;;5014368;28;20056;-58
2022/12/09 09:14:28;;;;;;;10.25;9.45;;;;;;;;;;5014829;28;20033;-59
2022/12/09 09:16:53;;;;;;;11.40;10.45;;;;;;;;;;5018515;28;20030;-58
2022/12/09 09:19:21;;;;;;;11.52;10.52;;;;;;;;;;5015845;28;20444;-58
2022/12/09 09:21:47;;;;;;;10.02;9.23;;;;;;;;;;5015829;28;20038;-58
2022/12/09 09:24:15;;;;;;;10.75;9.75;;;;;;;;;;5011361;28;20052;-59
2022/12/09 09:26:41;;;;;;;9.15;8.45;;;;;;;;;;5015403;28;20033;-58
2022/12/09 09:29:09;;;;;;;10.05;9.25;;;;;;;;;;5014211;28;20483;-61
2022/12/09 09:31:35;;;;;;;9.88;9.02;;;;;;;;;;5018202;28;20092;-60
2022/12/09 09:34:00;;;;;;;10.02;9.32;;;;;;;;;;5010637;28;20037;-59
2022/12/09 09:36:25;;;;;;;12.05;10.95;;;;;;;;;;5013500;28;20032;-59
2022/12/09 09:38:53;;;;;;;10.10;9.25;;;;;;;;;;5013634;28;20460;-59
2022/12/09 09:41:42;;;;;;;10.52;9.68;;;;;;;;;;5014381;28;20037;-59
2022/12/09 09:44:15;;;;;;;11.00;10.10;;;;;;;;;;5013992;28;20037;-59
2022/12/09 09:46:44;;;;;;;9.95;9.25;;;;;;;;;;5015189;28;20048;-59
2022/12/09 09:49:24;;;;;;;9.38;8.70;;;;;;;;;;5012327;28;20527;-59
2022/12/09 09:51:49;;;;;;;9.35;8.55;;;;;;;;;;5012193;28;20088;-59
2022/12/09 09:54:15;;;;;;;10.25;9.45;;;;;;;;;;5015111;28;20033;-59
2022/12/09 09:57:12;;;;;;;11.15;10.32;;;;;;;;;;5011341;28;20064;-61
2022/12/09 09:59:56;;;;;;;9.05;8.45;;;;;;;;;;5015531;28;20072;-59
2022/12/09 10:02:30;;;;;;;10.65;9.80;;;;;;;;;;5015737;28;20108;-59
2022/12/09 10:05:20;;;;;;;9.13;8.27;;;;;;;;;;5015897;28;20044;-59
2022/12/09 10:07:53;;;;;;;9.30;8.60;;;;;;;;;;5011117;28;20038;-59
2022/12/09 10:10:21;;;;;;;9.43;8.73;;;;;;;;;;5008449;28;20484;-59
2022/12/09 10:13:14;;;;;;;11.23;10.38;;;;;;;;;;5011314;28;20451;-59
2022/12/09 10:15:58;;;;;;;8.95;8.35;;;;;;;;;;5013755;28;20033;-59
2022/12/09 10:18:32;;;;;;;10.50;9.73;;;;;;;;;;5008214;28;20088;-59
2022/12/09 10:20:58;;;;;;;11.52;10.73;;;;;;;;;;5012023;28;20092;-59
2022/12/09 10:23:29;;;;;;;11.43;10.65;;;;;;;;;;5012389;28;20029;-59
2022/12/09 10:25:58;;;;;;;10.40;9.70;;;;;;;;;;4982626;28;20084;-59
2022/12/09 10:28:35;;;;;;;10.15;9.40;;;;;;;;;;5009679;28;20075;-59
2022/12/09 10:31:01;;;;;;;12.32;11.35;;;;;;;;;;5013686;28;20096;-59
2022/12/09 10:33:27;;;;;;;14.90;11.73;;;;;;;;;;5010243;28;20052;-58
2022/12/09 10:35:52;;;;;;;11.13;10.18;;;;;;;;;;5009511;28;20038;-58
2022/12/09 10:38:19;;;;;;;10.35;9.65;;;;;;;;;;5007460;28;20041;-59
2022/12/09 10:40:44;;;;;;;9.48;8.88;;;;;;;;;;5011106;28;20026;-58
2022/12/09 10:43:36;;;;;;;10.07;9.30;;;;;;;;;;5012703;28;20099;-59
2022/12/09 10:46:14;;;;;;;10.02;9.32;;;;;;;;;;5012234;28;20045;-59
2022/12/09 10:48:45;;;;;;;10.85;10.07;;;;;;;;;;5013384;28;20472;-59
2022/12/09 10:51:18;;;;;;;10.07;9.30;;;;;;;;;;5011213;28;20297;-58
2022/12/09 10:53:49;;;;;;;10.18;9.38;;;;;;;;;;5012221;28;20048;-58
2022/12/09 10:56:35;;;;;;;8.50;7.90;;;;;;;;;;5012212;28;20037;-58
2022/12/09 10:59:21;;;;;;;9.88;9.13;;;;;;;;;;5014059;28;20025;-60
2022/12/09 11:01:55;;;;;;;10.30;9.60;;;;;;;;;;5009988;28;20434;-59
2022/12/09 11:04:26;;;;;;;10.15;9.45;;;;;;;;;;5013170;28;20032;-58
2022/12/09 11:06:55;;;;;;;10.13;9.40;;;;;;;;;;5011910;28;20033;-59
2022/12/09 11:09:26;;;;;;;11.25;10.25;;;;;;;;;;5015350;28;20038;-60
2022/12/09 11:11:51;;;;;;;11.30;10.43;;;;;;;;;;5013705;28;20399;-58
2022/12/09 11:14:34;;;;;;;9.52;8.90;;;;;;;;;;5013960;28;20037;-59
2022/12/09 11:17:15;;;;;;;10.70;10.00;;;;;;;;;;5011058;28;20124;-59
2022/12/09 11:19:41;;;;;;;9.63;8.98;;;;;;;;;;5011193;28;20470;-58
2022/12/09 11:22:38;;;;;;;11.38;10.65;;;;;;;;;;5016319;28;20076;-59
2022/12/09 11:25:25;;;;;;;11.10;10.30;;;;;;;;;;5011417;28;20037;-60
2022/12/09 11:27:53;;;;;;;12.68;10.18;;;;;;;;;;5012279;28;20042;-59
2022/12/09 11:30:35;;;;;;;10.23;9.50;;;;;;;;;;5012310;28;20487;-60
2022/12/09 11:33:24;;;;;;;10.50;9.80;;;;;;;;;;5011765;28;20053;-60
2022/12/09 11:35:53;;;;;;;9.93;9.18;;;;;;;;;;5014906;28;20372;-59
2022/12/09 11:38:42;;;;;;;9.70;9.05;;;;;;;;;;5009792;28;20045;-59
2022/12/09 11:41:07;;;;;;;9.57;8.98;;;;;;;;;;5010617;28;20148;-60
2022/12/09 11:43:54;;;;;;;9.38;8.70;;;;;;;;;;5012592;28;20116;-60
2022/12/09 11:46:23;;;;;;;10.00;9.20;;;;;;;;;;5012021;28;20037;-60
2022/12/09 11:49:02;;;;;;;9.93;9.27;;;;;;;;;;5013189;28;20048;-60
2022/12/09 11:51:32;;;;;;;10.35;9.65;;;;;;;;;;5015231;28;20708;-59
2022/12/09 11:54:19;;;;;;;10.02;9.32;;;;;;;;;;5014148;28;20118;-59
2022/12/09 11:56:44;;;;;;;10.65;9.95;;;;;;;;;;5014339;28;20037;-59
2022/12/09 11:59:17;;;;;;;9.70;9.00;;;;;;;;;;5013843;28;20133;-59
2022/12/09 12:02:04;;;;;;;9.85;9.25;;;;;;;;;;5015416;28;20033;-58
2022/12/09 12:04:51;;;;;;;11.38;10.57;;;;;;;;;;5014049;28;20086;-58
2022/12/09 12:07:26;;;;;;;10.48;9.70;;;;;;;;;;5013911;28;20068;-59
2022/12/09 12:09:57;;;;;;;9.48;8.82;;;;;;;;;;5012249;28;20044;-59
2022/12/09 12:12:35;;;;;;;9.85;9.15;;;;;;;;;;5012539;28;20038;-60
2022/12/09 12:15:12;;;;;;;9.10;8.43;;;;;;;;;;5008657;28;20615;-59
2022/12/09 12:17:46;;;;;;;10.95;10.15;;;;;;;;;;5010948;28;20037;-59
2022/12/09 12:20:12;;;;;;;10.93;10.15;;;;;;;;;;5008778;28;20050;-59
2022/12/09 12:22:57;;;;;;;11.05;10.30;;;;;;;;;;5012025;28;20493;-59
2022/12/09 12:25:36;;;;;;;11.10;10.32;;;;;;;;;;5012770;28;20045;-59
2022/12/09 12:28:10;;;;;;;9.48;8.77;;;;;;;;;;5012318;28;20034;-60
2022/12/09 12:30:46;;;;;;;10.43;9.73;;;;;;;;;;5010711;28;20041;-58
2022/12/09 12:33:26;;;;;;;10.02;9.32;;;;;;;;;;5013443;28;20033;-56
2022/12/09 12:36:04;;;;;;;9.35;8.75;;;;;;;;;;5013294;28;20752;-58
2022/12/09 12:39:11;;;;;;;9.32;8.70;;;;;;;;;;5015257;28;20034;-60
2022/12/09 12:42:00;;;;;;;9.93;9.27;;;;;;;;;;5015352;28;20045;-59
2022/12/09 12:47:38;;;;;;;9.82;9.15;;;;;;;;;;5013906;28;20071;-60
2022/12/09 12:50:22;;;;;;;9.98;9.27;;;;;;;;;;5013943;28;20069;-59
2022/12/09 12:53:09;;;;;;;10.23;9.52;;;;;;;;;;5017018;28;20045;-58
2022/12/09 12:56:20;;;;;;;9.35;8.65;;;;;;;;;;5017613;28;20732;-59
2022/12/09 12:59:11;;;;;;;10.15;9.45;;;;;;;;;;4993233;28;20045;-59
2022/12/09 13:01:53;;;;;;;10.25;9.55;;;;;;;;;;5018350;28;20041;-59
2022/12/09 13:04:28;;;;;;;11.40;10.57;;;;;;;;;;5016495;28;20091;-59
2022/12/09 13:06:55;;;;;;;9.18;8.57;;;;;;;;;;5018925;28;20033;-60
2022/12/09 13:09:32;;;;;;;10.23;9.52;;;;;;;;;;5016517;28;20045;-60
2022/12/09 13:12:04;;;;;;;11.80;10.77;;;;;;;;;;5017795;28;20034;-60
2022/12/09 13:14:53;;;;;;;9.48;8.88;;;;;;;;;;5019412;28;20049;-59
2022/12/09 13:17:27;;;;;;;9.98;9.27;;;;;;;;;;5015937;28;20250;-60
2022/12/09 13:19:57;;;;;;;9.65;9.05;;;;;;;;;;5018810;28;20056;-59
2022/12/09 13:22:37;;;;;;;10.30;9.38;;;;;;;;;;5017202;28;20108;-59
2022/12/09 13:25:18;;;;;;;11.77;10.73;;;;;;;;;;5016813;28;20052;-59
2022/12/09 13:27:57;;;;;;;10.40;9.70;;;;;;;;;;5013798;28;20038;-59
2022/12/09 13:30:31;;;;;;;10.05;9.32;;;;;;;;;;5015984;28;20117;-60
2022/12/09 13:33:14;;;;;;;10.93;10.13;;;;;;;;;;5017851;28;20049;-58
2022/12/09 13:35:54;;;;;;;10.77;9.93;;;;;;;;;;5017034;28;20056;-59
2022/12/09 13:38:38;;;;;;;9.90;9.20;;;;;;;;;;5014543;28;20523;-57
2022/12/09 13:41:26;;;;;;;10.13;9.43;;;;;;;;;;5017029;28;20671;-58
2022/12/09 13:43:53;;;;;;;9.23;8.63;;;;;;;;;;5017220;28;20055;-58
2022/12/09 13:46:23;;;;;;;10.18;9.18;;;;;;;;;;5018320;28;20367;-58
2022/12/09 13:48:51;;;;;;;11.75;10.95;;;;;;;;;;5017495;28;20069;-57
2022/12/09 13:51:17;;;;;;;9.27;8.68;;;;;;;;;;5015256;28;20121;-56
2022/12/09 13:53:56;;;;;;;10.00;9.40;;;;;;;;;;5017376;28;20045;-59
2022/12/09 13:56:31;;;;;;;11.18;10.30;;;;;;;;;;5014978;28;20379;-57
2022/12/09 13:59:04;;;;;;;9.88;9.18;;;;;;;;;;5016236;28;20095;-58
2022/12/09 14:01:48;;;;;;;9.88;9.18;;;;;;;;;;5009733;28;20037;-56
2022/12/09 14:04:33;;;;;;;10.05;9.20;;;;;;;;;;5017332;28;20095;-59
2022/12/09 14:07:18;;;;;;;9.02;8.43;;;;;;;;;;5015443;28;20474;-59
2022/12/09 14:09:43;;;;;;;10.55;9.85;;;;;;;;;;5014566;28;20041;-59
2022/12/09 14:12:15;;;;;;;8.70;8.10;;;;;;;;;;5015398;28;20643;-57
2022/12/09 14:14:43;;;;;;;9.05;8.45;;;;;;;;;;5016342;28;20061;-59
2022/12/09 14:17:19;;;;;;;9.93;9.23;;;;;;;;;;5013055;28;20127;-59
2022/12/09 14:19:47;;;;;;;9.70;9.02;;;;;;;;;;5016193;28;20128;-62
2022/12/09 14:22:16;;;;;;;9.07;8.48;;;;;;;;;;5014364;28;20098;-63
2022/12/09 14:24:49;;;;;;;10.05;9.25;;;;;;;;;;5015309;28;20099;-62
2022/12/09 14:27:17;;;;;;;10.55;9.75;;;;;;;;;;5014624;28;20640;-64
2022/12/09 14:29:56;;;;;;;9.63;8.93;;;;;;;;;;5015145;28;20037;-62
2022/12/09 14:32:44;;;;;;;10.20;9.48;;;;;;;;;;5021364;28;20034;-63
2022/12/09 14:35:09;;;;;;;9.43;8.82;;;;;;;;;;5016822;28;20052;-60
2022/12/09 14:37:53;;;;;;;10.02;9.32;;;;;;;;;;5012982;28;20699;-63
2022/12/09 14:40:38;;;;;;;9.93;9.23;;;;;;;;;;5012920;28;20379;-62
2022/12/09 14:43:15;;;;;;;11.40;9.20;;;;;;;;;;5014796;28;20042;-61
2022/12/09 14:45:47;;;;;;;10.93;10.13;;;;;;;;;;5013010;28;20033;-64
2022/12/09 14:48:28;;;;;;;10.18;9.43;;;;;;;;;;5011524;28;20037;-63
2022/12/09 14:51:08;;;;;;;9.80;9.00;;;;;;;;;;5015671;28;20033;-62
2022/12/09 14:53:36;;;;;;;9.65;8.95;;;;;;;;;;5013478;28;20033;-62
2022/12/09 14:56:02;;;;;;;10.82;10.13;;;;;;;;;;5017302;28;20472;-63